Sharjah, UAE

6:21 AM GST on December 11, 2016 (GMT +0400)
Sharjah International | | Change Station

Elev 108 ft 25.33 °N, 55.52 °E | Updated 21 minutes ago

Scattered Clouds
Scattered Clouds
70 °F
Feels Like 70 °F
N
8
Wind Variable Wind from South

Today
High -- | Low -- °F
--% Chance of Precip.
Yesterday
High -- | Low -- °F
Precip. -- in
Pressure 30.01 in
Visibility 6.2 miles
Clouds Scattered Clouds 4000 ft
Dew Point 50 °F
Humidity 49%
Rainfall 0.00 in
Snow Depth Not available.
6:53 AM 5:29 PM
Waxing Gibbous, 88% visible
METAR OMSJ 110200Z 18007KT 9999 SCT040 21/10 Q1016
Pressure 30.01 in
Visibility 6.2 miles
Clouds Scattered Clouds 4000 ft
Dew Point 50 °F
Humidity 49%
Rainfall 0.00 in
Snow Depth Not available.
6:53 AM 5:29 PM
Waxing Gibbous, 88% visible
METAR OMSJ 110200Z 18007KT 9999 SCT040 21/10 Q1016

10-Day Weather Forecast

No radar image for this location.
×

Almanac

Astronomy

Dec. 11, 2016 Rise Set
Actual Time
Civil Twilight
Nautical Twilight
Astronomical Twilight
Moon
Length of Visible Light
Length of Day
Tomorrow will be .
, % of the Moon is Illuminated

Today's Extremes

Country Highs Country Lows

Community

WunderPhotos

Upload Photos

1,956,690 photos uploaded!

WunderBlog® & News

Nearby

Air Quality

  Air Quality AQ Index Pollutant
Not available.

Snow Depth

Station Depth Elevation

Earthquake Activity

City Distance Mag. Time & Date
Minimum magnitude displayed is 2.5.

Coastal Water Temperatures

Place Temperature

Stations

Nearby Weather Stations

Station Location Temp. Windchill Dew Point Humidity Wind Precip. Elev Updated Type